Terminal Aerodrome Forecast
Issued by NWS

Home | Current Version | Previous Version | Text Only | Print | Product List | Glossary On
Versions: 1 2 3 4 5 6 7 8 9 10 11 12 13
146
FTUS46 KMFR 041740
TAFOTH
TAF
KOTH 041740Z 0418/0518 36016G21KT P6SM OVC017
     FM042100 36020G30KT P6SM -SHRA OVC020
     FM050400 36012KT P6SM VCSH OVC015=

USA.gov is the U.S. government's official web portal to all federal, state and local government web resources and services.